Time;durP1;ratioP1;P1;durP2;ratioP2;P2;SDS_P1;SDS_P2;PMS_P1;PMS_P2;Temp;Humidity;BMP_temperature;BMP_pressure;BME280_temperature;BME280_humidity;BME280_pressure;Samples;Min_cycle;Max_cycle;Signal;HPM_P1;HPM_P2
2023/10/07 00:00:17;;;;;;;39.53;28.38;;;;;;;;;;6268937;28;20151;-77
2023/10/07 00:03:19;;;;;;;35.65;25.45;;;;;;;;;;6268153;28;20321;-77
2023/10/07 00:06:27;;;;;;;38.63;25.60;;;;;;;;;;6271130;28;20103;-77
2023/10/07 00:09:28;;;;;;;39.17;24.55;;;;;;;;;;6270189;28;20057;-76
2023/10/07 00:12:30;;;;;;;41.63;27.00;;;;;;;;;;6270761;28;20049;-77
2023/10/07 00:15:32;;;;;;;39.67;25.90;;;;;;;;;;6268907;28;20218;-77
2023/10/07 00:18:34;;;;;;;37.67;25.23;;;;;;;;;;6264494;28;20084;-76
2023/10/07 00:21:55;;;;;;;35.35;26.33;;;;;;;;;;6267929;28;20056;-78
2023/10/07 00:24:58;;;;;;;34.85;24.77;;;;;;;;;;6267173;28;20048;-77
2023/10/07 00:28:00;;;;;;;41.22;25.02;;;;;;;;;;6266843;28;20349;-78
2023/10/07 00:31:03;;;;;;;40.45;25.65;;;;;;;;;;6269351;28;20068;-77
2023/10/07 00:34:11;;;;;;;40.33;26.67;;;;;;;;;;6270401;28;20048;-78
2023/10/07 00:37:15;;;;;;;39.15;26.30;;;;;;;;;;6267921;28;20048;-77
2023/10/07 00:40:30;;;;;;;36.65;23.67;;;;;;;;;;6265185;28;20068;-79
2023/10/07 00:43:32;;;;;;;36.00;23.27;;;;;;;;;;6267780;28;20076;-77
2023/10/07 00:46:34;;;;;;;34.08;23.92;;;;;;;;;;6264097;28;20107;-78
2023/10/07 00:49:41;;;;;;;37.35;24.13;;;;;;;;;;6264810;28;20045;-77
2023/10/07 00:52:55;;;;;;;38.13;24.27;;;;;;;;;;6268769;28;20049;-79
2023/10/07 00:55:58;;;;;;;;;;;;;;;;;;6267542;28;20057;-78
2023/10/07 00:59:07;;;;;;;38.92;24.10;;;;;;;;;;6264504;28;19925;-77
2023/10/07 01:02:16;;;;;;;36.80;23.45;;;;;;;;;;6270341;28;20044;-78
2023/10/07 01:05:24;;;;;;;34.75;23.77;;;;;;;;;;6267947;28;20054;-80
2023/10/07 01:08:34;;;;;;;35.72;24.15;;;;;;;;;;6268358;28;20057;-76
2023/10/07 01:11:40;;;;;;;35.97;24.10;;;;;;;;;;6267928;28;20057;-77
2023/10/07 01:14:47;;;;;;;39.53;24.58;;;;;;;;;;6264964;28;20057;-77
2023/10/07 01:17:53;;;;;;;35.88;25.13;;;;;;;;;;6268785;28;20339;-77
2023/10/07 01:21:08;;;;;;;37.95;24.13;;;;;;;;;;6266849;28;20237;-75
2023/10/07 01:24:13;;;;;;;37.65;24.42;;;;;;;;;;6265918;28;20245;-77
2023/10/07 01:31:07;;;;;;;35.22;23.98;;;;;;;;;;6318604;27;1317109;-77
2023/10/07 01:34:13;;;;;;;39.35;23.85;;;;;;;;;;6364421;28;20047;-78
2023/10/07 01:37:21;;;;;;;33.50;23.67;;;;;;;;;;6339768;28;20062;-77
2023/10/07 01:40:27;;;;;;;37.58;25.48;;;;;;;;;;6354284;28;20060;-77
2023/10/07 01:43:29;;;;;;;38.97;24.85;;;;;;;;;;6342307;28;20047;-77
2023/10/07 01:46:33;;;;;;;41.67;25.13;;;;;;;;;;6339554;28;20058;-76
2023/10/07 01:49:35;;;;;;;39.58;25.13;;;;;;;;;;6344601;28;20048;-78
2023/10/07 01:52:38;;;;;;;48.83;30.45;;;;;;;;;;6360392;28;20059;-77
2023/10/07 01:55:42;;;;;;;37.97;25.40;;;;;;;;;;6340962;28;20115;-77
2023/10/07 01:58:45;;;;;;;37.35;25.48;;;;;;;;;;6357042;28;20136;-77
2023/10/07 02:01:58;;;;;;;41.65;25.08;;;;;;;;;;6336460;28;20052;-77
2023/10/07 02:05:04;;;;;;;42.15;25.60;;;;;;;;;;6336955;28;20292;-78
2023/10/07 02:08:11;;;;;;;38.53;25.10;;;;;;;;;;6324492;28;20044;-77
2023/10/07 02:11:17;;;;;;;39.22;25.13;;;;;;;;;;6325014;28;20052;-78
2023/10/07 02:14:21;;;;;;;37.33;24.63;;;;;;;;;;6340342;28;20079;-78
2023/10/07 02:17:25;;;;;;;41.00;24.70;;;;;;;;;;6345031;28;20054;-77
2023/10/07 02:20:28;;;;;;;37.40;25.90;;;;;;;;;;6344245;28;20060;-77
2023/10/07 02:23:37;;;;;;;38.25;24.15;;;;;;;;;;6346839;28;20275;-77
2023/10/07 02:26:43;;;;;;;35.88;23.73;;;;;;;;;;6341248;28;20107;-78
2023/10/07 02:29:48;;;;;;;40.50;25.40;;;;;;;;;;6325105;28;20052;-78
2023/10/07 02:32:51;;;;;;;38.22;25.25;;;;;;;;;;6335648;28;20337;-77
2023/10/07 02:35:56;;;;;;;36.15;24.15;;;;;;;;;;6338618;28;20291;-78
2023/10/07 02:39:01;;;;;;;36.67;25.27;;;;;;;;;;6325556;28;20273;-78
2023/10/07 02:42:03;;;;;;;41.47;25.40;;;;;;;;;;6321773;28;20103;-78
2023/10/07 02:45:20;;;;;;;41.10;25.55;;;;;;;;;;6316171;28;20046;-77
2023/10/07 02:48:23;;;;;;;32.50;22.55;;;;;;;;;;6312940;28;20115;-78
2023/10/07 02:51:27;;;;;;;39.78;23.45;;;;;;;;;;6322371;28;20109;-77
2023/10/07 02:54:32;;;;;;;36.65;23.90;;;;;;;;;;6308718;28;20171;-77
2023/10/07 02:57:39;;;;;;;38.67;23.38;;;;;;;;;;6306217;28;20048;-77
2023/10/07 03:00:49;;;;;;;36.53;25.77;;;;;;;;;;6328822;28;20123;-77
2023/10/07 03:03:52;;;;;;;37.17;24.50;;;;;;;;;;6330140;28;20048;-77
2023/10/07 03:06:54;;;;;;;38.00;25.17;;;;;;;;;;6328890;28;20048;-77
2023/10/07 03:10:04;;;;;;;37.75;24.80;;;;;;;;;;6317721;28;20048;-77
2023/10/07 03:13:06;;;;;;;38.63;25.38;;;;;;;;;;6309173;28;20052;-78
2023/10/07 03:16:28;;;;;;;41.03;25.13;;;;;;;;;;6303908;28;20056;-77
2023/10/07 03:19:47;;;;;;;37.20;24.80;;;;;;;;;;6311543;28;20085;-77
2023/10/07 03:26:08;;;;;;;41.47;23.80;;;;;;;;;;6306836;28;20059;-77
2023/10/07 03:29:16;;;;;;;39.95;25.70;;;;;;;;;;6306435;28;20060;-78
2023/10/07 03:32:22;;;;;;;39.95;25.75;;;;;;;;;;6305360;28;20060;-77
2023/10/07 03:38:43;;;;;;;38.58;24.50;;;;;;;;;;6310873;28;20047;-77
2023/10/07 03:41:48;;;;;;;38.20;24.38;;;;;;;;;;6319228;28;20078;-78
2023/10/07 03:44:50;;;;;;;38.08;24.63;;;;;;;;;;6307253;28;20044;-77
2023/10/07 03:47:52;;;;;;;40.15;24.83;;;;;;;;;;6327385;28;20248;-78
2023/10/07 03:51:04;;;;;;;38.08;24.13;;;;;;;;;;6329505;28;20055;-77
2023/10/07 03:54:12;;;;;;;37.58;24.75;;;;;;;;;;6314920;28;20048;-78
2023/10/07 03:57:15;;;;;;;38.67;25.00;;;;;;;;;;6328480;28;20115;-78
2023/10/07 04:00:17;;;;;;;33.15;22.75;;;;;;;;;;6329658;28;20079;-77
2023/10/07 04:03:23;;;;;;;38.25;23.83;;;;;;;;;;6330066;28;20063;-78
2023/10/07 04:06:31;;;;;;;36.13;24.52;;;;;;;;;;6327258;28;20344;-77
2023/10/07 04:09:33;;;;;;;34.50;23.52;;;;;;;;;;6328225;28;20044;-77
2023/10/07 04:12:34;;;;;;;34.45;23.98;;;;;;;;;;6308469;28;20057;-77
2023/10/07 04:15:50;;;;;;;36.75;23.95;;;;;;;;;;6305135;28;20114;-77
2023/10/07 04:19:01;;;;;;;36.42;24.23;;;;;;;;;;6306313;28;20070;-78
2023/10/07 04:22:07;;;;;;;37.10;23.17;;;;;;;;;;6314176;28;20302;-78
2023/10/07 04:25:17;;;;;;;31.33;20.92;;;;;;;;;;6329806;28;20058;-78
2023/10/07 04:28:19;;;;;;;35.05;23.58;;;;;;;;;;6330347;28;20060;-77
2023/10/07 04:31:29;;;;;;;36.35;23.83;;;;;;;;;;6325184;28;20041;-78
2023/10/07 04:34:35;;;;;;;35.92;23.83;;;;;;;;;;6302275;28;20098;-77
2023/10/07 04:37:52;;;;;;;36.45;22.85;;;;;;;;;;6308804;28;20043;-78
2023/10/07 04:44:27;;;;;;;30.90;21.17;;;;;;;;;;6310343;28;20106;-78
2023/10/07 04:47:34;;;;;;;34.17;22.38;;;;;;;;;;6329524;28;20052;-75
2023/10/07 04:50:37;;;;;;;32.25;22.40;;;;;;;;;;6308807;28;20186;-76
2023/10/07 04:53:39;;;;;;;31.52;21.63;;;;;;;;;;6318038;28;20052;-78
2023/10/07 04:56:47;;;;;;;35.47;22.15;;;;;;;;;;6327840;28;20043;-78
2023/10/07 04:59:49;;;;;;;33.70;22.55;;;;;;;;;;6329642;28;20075;-78
2023/10/07 05:02:49;;;;;;;36.42;24.02;;;;;;;;;;6326270;28;20076;-77
2023/10/07 05:05:51;;;;;;;40.03;22.25;;;;;;;;;;6326433;28;20040;-77
2023/10/07 05:08:54;;;;;;;44.30;22.92;;;;;;;;;;6326137;28;20048;-78
2023/10/07 05:11:57;;;;;;;41.63;23.63;;;;;;;;;;6326789;28;20056;-78
2023/10/07 05:15:00;;;;;;;52.33;23.95;;;;;;;;;;6327014;28;20052;-78
2023/10/07 05:18:03;;;;;;;57.42;22.40;;;;;;;;;;6328129;28;20048;-77
2023/10/07 05:21:06;;;;;;;38.00;22.83;;;;;;;;;;6325829;28;20052;-78
2023/10/07 05:24:11;;;;;;;32.30;22.00;;;;;;;;;;6327056;28;20105;-78
2023/10/07 05:27:12;;;;;;;37.28;22.70;;;;;;;;;;6327370;28;20437;-77
2023/10/07 05:30:16;;;;;;;37.78;23.05;;;;;;;;;;6327398;28;20051;-77
2023/10/07 05:33:18;;;;;;;38.33;24.85;;;;;;;;;;6307489;28;20048;-78
2023/10/07 05:36:23;;;;;;;38.35;23.67;;;;;;;;;;6302568;28;20063;-78
2023/10/07 05:39:26;;;;;;;37.70;24.05;;;;;;;;;;6326402;28;20047;-77
2023/10/07 05:42:28;;;;;;;37.78;23.48;;;;;;;;;;6311027;28;20059;-78
2023/10/07 05:45:29;;;;;;;36.75;24.10;;;;;;;;;;6303258;28;20063;-77
2023/10/07 05:48:31;;;;;;;40.97;23.25;;;;;;;;;;6303078;28;20044;-76
2023/10/07 05:51:34;;;;;;;38.55;25.83;;;;;;;;;;6313182;28;20047;-77
2023/10/07 05:54:37;;;;;;;37.08;25.00;;;;;;;;;;6308717;28;20098;-77
2023/10/07 05:57:39;;;;;;;42.72;26.15;;;;;;;;;;6315477;28;20056;-78
2023/10/07 06:00:40;;;;;;;42.90;26.15;;;;;;;;;;6327512;28;20044;-78
2023/10/07 06:03:43;;;;;;;46.90;26.40;;;;;;;;;;6324817;28;20126;-78
2023/10/07 06:06:44;;;;;;;36.50;23.52;;;;;;;;;;6326747;28;20281;-77
2023/10/07 06:09:48;;;;;;;37.63;22.33;;;;;;;;;;6304317;28;20253;-78
2023/10/07 06:12:50;;;;;;;38.10;21.45;;;;;;;;;;6320817;28;20060;-78
2023/10/07 06:15:51;;;;;;;35.75;22.83;;;;;;;;;;6315193;28;20107;-78
2023/10/07 06:18:53;;;;;;;32.80;20.50;;;;;;;;;;6327691;28;20054;-77
2023/10/07 06:21:56;;;;;;;32.95;20.92;;;;;;;;;;6332324;28;20133;-77
2023/10/07 06:25:04;;;;;;;29.02;19.27;;;;;;;;;;6310206;28;20058;-78
2023/10/07 06:28:06;;;;;;;32.03;20.98;;;;;;;;;;6329951;28;20048;-78
2023/10/07 06:31:11;;;;;;;30.00;19.85;;;;;;;;;;6308560;28;20048;-75
2023/10/07 06:34:14;;;;;;;31.75;20.90;;;;;;;;;;6305279;28;20283;-77
2023/10/07 06:37:16;;;;;;;28.20;20.33;;;;;;;;;;6312467;28;20048;-78
2023/10/07 06:40:28;;;;;;;30.17;20.38;;;;;;;;;;6304820;28;20267;-76
2023/10/07 06:43:30;;;;;;;30.42;21.23;;;;;;;;;;6327736;28;20089;-78
2023/10/07 06:46:40;;;;;;;30.48;21.77;;;;;;;;;;6327607;28;20079;-78
2023/10/07 06:49:42;;;;;;;30.63;20.40;;;;;;;;;;6327783;28;20105;-78
2023/10/07 06:52:44;;;;;;;40.33;23.00;;;;;;;;;;6331865;28;20055;-78
2023/10/07 06:55:51;;;;;;;27.60;20.40;;;;;;;;;;6329143;28;20056;-78
2023/10/07 06:58:54;;;;;;;31.15;18.98;;;;;;;;;;6326227;28;20378;-78
2023/10/07 07:01:56;;;;;;;28.85;19.33;;;;;;;;;;6305198;28;20105;-77
2023/10/07 07:04:58;;;;;;;30.02;19.42;;;;;;;;;;6302889;28;20321;-80
2023/10/07 07:08:03;;;;;;;29.92;19.77;;;;;;;;;;6313345;28;20052;-80
2023/10/07 07:11:10;;;;;;;26.42;19.15;;;;;;;;;;6316000;28;20093;-77
2023/10/07 07:14:12;;;;;;;27.05;18.75;;;;;;;;;;6309672;28;20116;-79
2023/10/07 07:21:00;;;;;;;27.65;19.02;;;;;;;;;;6223222;28;20050;-79
2023/10/07 07:24:02;;;;;;;29.98;18.63;;;;;;;;;;6225169;28;20050;-77
2023/10/07 07:27:05;;;;;;;29.13;19.95;;;;;;;;;;6224312;28;20053;-77
2023/10/07 07:30:08;;;;;;;30.00;19.95;;;;;;;;;;6228380;28;20350;-76
2023/10/07 07:33:12;;;;;;;26.73;19.50;;;;;;;;;;6228468;28;20065;-76
2023/10/07 07:36:24;;;;;;;;;;;;;;;;;;6227864;28;20473;-76
2023/10/07 07:39:30;;;;;;;27.05;18.85;;;;;;;;;;6219454;28;19992;-75
2023/10/07 07:42:34;;;;;;;29.17;19.45;;;;;;;;;;6228211;28;20041;-77
2023/10/07 07:45:36;;;;;;;30.20;20.55;;;;;;;;;;6227183;28;20338;-77
2023/10/07 07:48:38;;;;;;;35.17;20.70;;;;;;;;;;6228015;28;20349;-77
2023/10/07 07:51:41;;;;;;;31.77;20.55;;;;;;;;;;6283290;28;20047;-75
2023/10/07 07:54:43;;;;;;;26.77;18.90;;;;;;;;;;6326081;28;20051;-77
2023/10/07 07:57:46;;;;;;;31.13;22.23;;;;;;;;;;6330815;28;20060;-76
2023/10/07 08:00:58;;;;;;;30.48;21.58;;;;;;;;;;6304342;28;20059;-77
2023/10/07 08:04:09;;;;;;;27.13;19.40;;;;;;;;;;6328090;28;20048;-76
2023/10/07 08:07:18;;;;;;;30.23;23.05;;;;;;;;;;6308175;28;20115;-78
2023/10/07 08:10:20;;;;;;;34.40;23.15;;;;;;;;;;6305400;28;20283;-77
2023/10/07 08:13:27;;;;;;;32.88;22.50;;;;;;;;;;6328991;28;20052;-77
2023/10/07 08:16:29;;;;;;;35.40;25.02;;;;;;;;;;6327954;28;20048;-76
2023/10/07 08:19:32;;;;;;;35.67;25.98;;;;;;;;;;6327838;28;20055;-80
2023/10/07 08:22:37;;;;;;;;;;;;;;;;;;6328424;28;20115;-78
2023/10/07 08:25:45;;;;;;;37.88;25.50;;;;;;;;;;6319022;28;19932;-79
2023/10/07 08:28:59;;;;;;;37.25;25.92;;;;;;;;;;6302126;28;20056;-79
2023/10/07 08:32:10;;;;;;;34.85;24.08;;;;;;;;;;6303595;28;20388;-78
2023/10/07 08:35:16;;;;;;;36.05;25.27;;;;;;;;;;6307068;28;20277;-77
2023/10/07 08:38:22;;;;;;;37.22;25.58;;;;;;;;;;6304090;28;20316;-79
2023/10/07 08:41:26;;;;;;;36.67;25.85;;;;;;;;;;6314733;28;20066;-79
2023/10/07 08:44:31;;;;;;;38.88;26.45;;;;;;;;;;6326784;28;20055;-77
2023/10/07 08:47:48;;;;;;;38.78;26.63;;;;;;;;;;6329652;28;20101;-77
2023/10/07 08:50:55;;;;;;;39.13;25.90;;;;;;;;;;6305064;28;20052;-73
2023/10/07 08:54:05;;;;;;;40.17;27.55;;;;;;;;;;6305959;28;20133;-73
2023/10/07 08:57:09;;;;;;;35.40;24.38;;;;;;;;;;6311647;28;20044;-72
2023/10/07 09:00:21;;;;;;;37.75;26.50;;;;;;;;;;6326188;28;20054;-77
2023/10/07 09:03:26;;;;;;;31.33;24.52;;;;;;;;;;6324872;28;20048;-78
2023/10/07 09:06:32;;;;;;;43.58;28.52;;;;;;;;;;6326340;28;20106;-77
2023/10/07 09:09:38;;;;;;;41.22;27.98;;;;;;;;;;6311366;28;20040;-77
2023/10/07 09:12:45;;;;;;;38.70;27.50;;;;;;;;;;6308562;28;20055;-76
2023/10/07 09:15:53;;;;;;;38.03;27.33;;;;;;;;;;6302615;28;20049;-79
2023/10/07 09:18:57;;;;;;;41.70;27.60;;;;;;;;;;6304096;28;20040;-79
2023/10/07 09:21:59;;;;;;;37.25;26.02;;;;;;;;;;6326421;28;20054;-75
2023/10/07 09:25:09;;;;;;;40.33;26.37;;;;;;;;;;6305306;28;20059;-75
2023/10/07 09:28:13;;;;;;;39.22;26.85;;;;;;;;;;6300796;28;20283;-75
2023/10/07 09:31:17;;;;;;;37.72;25.00;;;;;;;;;;6307100;28;20052;-81
2023/10/07 09:34:30;;;;;;;37.38;25.40;;;;;;;;;;6320710;28;20430;-79
2023/10/07 09:37:32;;;;;;;36.78;26.02;;;;;;;;;;6301852;28;20240;-78
2023/10/07 09:43:56;;;;;;;37.13;26.95;;;;;;;;;;6321131;28;20556;-74
2023/10/07 09:47:03;;;;;;;36.55;27.17;;;;;;;;;;6321766;28;20052;-76
2023/10/07 09:50:10;;;;;;;30.67;22.98;;;;;;;;;;6326858;28;20071;-76
2023/10/07 09:53:27;;;;;;;41.25;28.15;;;;;;;;;;6322897;28;20053;-75
2023/10/07 09:56:38;;;;;;;35.80;25.60;;;;;;;;;;6307774;28;20325;-78
2023/10/07 09:59:56;;;;;;;37.15;26.83;;;;;;;;;;6330250;28;20039;-81
2023/10/07 10:03:12;;;;;;;36.80;26.27;;;;;;;;;;6306776;28;20055;-80
2023/10/07 10:06:25;;;;;;;36.63;25.98;;;;;;;;;;6309076;28;20116;-77
2023/10/07 10:09:29;;;;;;;36.70;24.70;;;;;;;;;;6311477;28;20068;-77
2023/10/07 10:12:53;;;;;;;39.28;25.52;;;;;;;;;;6307683;28;20123;-76
2023/10/07 10:16:00;;;;;;;42.70;26.38;;;;;;;;;;6319342;28;20059;-80
2023/10/07 10:19:21;;;;;;;37.05;26.33;;;;;;;;;;6328466;28;20146;-78
2023/10/07 10:22:24;;;;;;;43.60;28.33;;;;;;;;;;6304694;28;20063;-78
2023/10/07 10:25:36;;;;;;;39.38;25.95;;;;;;;;;;6308198;28;20048;-78
2023/10/07 10:28:38;;;;;;;36.65;27.20;;;;;;;;;;6305579;28;20071;-78
2023/10/07 10:31:43;;;;;;;36.40;25.83;;;;;;;;;;6314515;28;20060;-78
2023/10/07 10:34:46;;;;;;;40.40;27.35;;;;;;;;;;6329660;28;20052;-77
2023/10/07 10:37:55;;;;;;;45.35;26.50;;;;;;;;;;6330296;28;20252;-78
2023/10/07 10:40:58;;;;;;;36.80;24.00;;;;;;;;;;6326941;28;20060;-77
2023/10/07 10:44:10;;;;;;;35.25;26.55;;;;;;;;;;6308091;28;20098;-77
2023/10/07 10:47:15;;;;;;;35.93;27.23;;;;;;;;;;6308013;28;20044;-79
2023/10/07 10:50:20;;;;;;;37.85;26.20;;;;;;;;;;6307908;28;20321;-78
2023/10/07 10:53:21;;;;;;;35.50;25.73;;;;;;;;;;6305435;28;20115;-77
2023/10/07 10:56:23;;;;;;;37.47;26.58;;;;;;;;;;6310960;28;20279;-78
2023/10/07 10:59:36;;;;;;;36.92;26.13;;;;;;;;;;6308174;28;20141;-77
2023/10/07 11:02:40;;;;;;;34.45;25.58;;;;;;;;;;6305919;28;20285;-80
2023/10/07 11:05:45;;;;;;;35.33;23.60;;;;;;;;;;6317982;28;20052;-80
2023/10/07 11:08:46;;;;;;;40.25;25.88;;;;;;;;;;6323201;28;20098;-81
2023/10/07 11:11:52;;;;;;;34.65;23.42;;;;;;;;;;6332705;28;20051;-85
2023/10/07 11:15:03;;;;;;;38.42;26.85;;;;;;;;;;6314085;28;20047;-81
2023/10/07 11:18:12;;;;;;;35.90;25.80;;;;;;;;;;6329445;28;20094;-81
2023/10/07 11:21:18;;;;;;;32.33;24.30;;;;;;;;;;6328430;28;20081;-76
2023/10/07 11:24:24;;;;;;;37.75;26.23;;;;;;;;;;6306060;28;20058;-78
2023/10/07 11:27:26;;;;;;;30.73;23.65;;;;;;;;;;6332339;28;20040;-77
2023/10/07 11:30:29;;;;;;;28.77;22.35;;;;;;;;;;6330296;28;20357;-78
2023/10/07 11:33:31;;;;;;;31.40;22.23;;;;;;;;;;6329498;28;20100;-78
2023/10/07 11:36:45;;;;;;;35.25;24.10;;;;;;;;;;6311284;28;20070;-77
2023/10/07 11:39:46;;;;;;;27.48;19.83;;;;;;;;;;6317350;28;20063;-77
2023/10/07 11:42:48;;;;;;;36.90;26.70;;;;;;;;;;6310876;28;20388;-74
2023/10/07 11:45:50;;;;;;;28.80;22.98;;;;;;;;;;6297779;28;20058;-77
2023/10/07 11:48:52;;;;;;;33.42;25.58;;;;;;;;;;6301281;28;20119;-78
2023/10/07 11:51:55;;;;;;;35.75;23.08;;;;;;;;;;6305515;28;20328;-82
2023/10/07 11:54:57;;;;;;;28.42;22.48;;;;;;;;;;6305137;28;20060;-81
2023/10/07 11:57:59;;;;;;;28.97;23.30;;;;;;;;;;6307284;28;20052;-81
2023/10/07 12:01:03;;;;;;;26.15;21.05;;;;;;;;;;6328905;28;20097;-80
2023/10/07 12:04:05;;;;;;;28.60;19.65;;;;;;;;;;6330179;28;20119;-78
2023/10/07 12:07:10;;;;;;;28.50;21.88;;;;;;;;;;6327843;28;20055;-81
2023/10/07 12:10:15;;;;;;;27.25;21.98;;;;;;;;;;6324599;28;20052;-80
2023/10/07 12:13:19;;;;;;;28.65;22.05;;;;;;;;;;6309048;28;20042;-76
2023/10/07 12:16:21;;;;;;;26.80;20.77;;;;;;;;;;6329667;28;20336;-82
2023/10/07 12:19:25;;;;;;;25.27;20.30;;;;;;;;;;6325801;28;20292;-81
2023/10/07 12:22:28;;;;;;;29.27;20.70;;;;;;;;;;6323540;28;20055;-80
2023/10/07 12:25:32;;;;;;;27.90;22.52;;;;;;;;;;6328047;28;20059;-85
2023/10/07 12:28:33;;;;;;;34.28;21.30;;;;;;;;;;6328871;28;20044;-84
2023/10/07 12:31:36;;;;;;;26.98;21.75;;;;;;;;;;6328949;28;20048;-82
2023/10/07 12:34:40;;;;;;;26.98;20.50;;;;;;;;;;6325734;28;20351;-79
2023/10/07 12:37:46;;;;;;;27.55;20.98;;;;;;;;;;6325799;28;20051;-80
2023/10/07 12:40:48;;;;;;;28.35;21.23;;;;;;;;;;6320149;28;20076;-85
2023/10/07 12:43:50;;;;;;;27.77;21.17;;;;;;;;;;6306031;28;20052;-80
2023/10/07 12:46:54;;;;;;;26.92;20.52;;;;;;;;;;6304750;28;20179;-80
2023/10/07 12:49:56;;;;;;;27.33;19.95;;;;;;;;;;6311267;28;20275;-81
2023/10/07 12:53:01;;;;;;;20.38;13.98;;;;;;;;;;6321368;28;20063;-79
2023/10/07 12:56:12;;;;;;;21.45;16.23;;;;;;;;;;6302315;28;20047;-78
2023/10/07 12:59:22;;;;;;;23.98;19.33;;;;;;;;;;6326330;28;20052;-79
2023/10/07 13:02:28;;;;;;;22.98;16.63;;;;;;;;;;6326375;28;20048;-78
2023/10/07 13:05:32;;;;;;;23.10;16.77;;;;;;;;;;6321570;28;20052;-80
2023/10/07 13:08:38;;;;;;;21.23;17.00;;;;;;;;;;6326578;28;20064;-79
2023/10/07 13:11:40;;;;;;;20.73;13.82;;;;;;;;;;6326000;28;20071;-77
2023/10/07 13:14:42;;;;;;;22.15;16.73;;;;;;;;;;6325499;28;20105;-79
2023/10/07 13:17:45;;;;;;;23.58;17.10;;;;;;;;;;6313437;28;20218;-78
2023/10/07 13:20:47;;;;;;;17.30;13.32;;;;;;;;;;6306565;28;20055;-79
2023/10/07 13:23:50;;;;;;;17.45;14.02;;;;;;;;;;6316581;28;20049;-78
2023/10/07 13:26:51;;;;;;;20.60;16.17;;;;;;;;;;6302708;28;20587;-78
2023/10/07 13:29:53;;;;;;;27.73;17.60;;;;;;;;;;6302875;28;20052;-79
2023/10/07 13:32:55;;;;;;;20.33;12.47;;;;;;;;;;6299685;28;20441;-78
2023/10/07 13:35:57;;;;;;;17.90;14.20;;;;;;;;;;6303057;28;20325;-77
2023/10/07 13:39:03;;;;;;;22.73;18.42;;;;;;;;;;6308879;28;20048;-78
2023/10/07 13:42:09;;;;;;;17.70;15.20;;;;;;;;;;6301135;28;20555;-78
2023/10/07 13:45:14;;;;;;;22.95;17.00;;;;;;;;;;6309318;28;20231;-77
2023/10/07 13:48:15;;;;;;;19.85;16.60;;;;;;;;;;6307376;28;20071;-78
2023/10/07 13:51:17;;;;;;;17.85;15.52;;;;;;;;;;6321221;28;20047;-77
2023/10/07 13:54:23;;;;;;;21.83;16.63;;;;;;;;;;6323967;28;20059;-78
2023/10/07 13:57:26;;;;;;;22.30;17.70;;;;;;;;;;6300530;28;20451;-79
2023/10/07 14:00:35;;;;;;;21.75;15.07;;;;;;;;;;6304600;28;20095;-78
2023/10/07 14:03:39;;;;;;;19.00;13.35;;;;;;;;;;6302033;28;20325;-79
2023/10/07 14:06:41;;;;;;;22.52;16.45;;;;;;;;;;6303067;28;20074;-78
2023/10/07 14:09:48;;;;;;;22.13;17.27;;;;;;;;;;6307062;28;20072;-77
2023/10/07 14:12:51;;;;;;;19.25;16.58;;;;;;;;;;6298165;28;20116;-77
2023/10/07 14:15:52;;;;;;;;;;;;;;;;;;6295080;28;20053;-74
2023/10/07 14:18:54;;;;;;;19.95;14.65;;;;;;;;;;6302253;28;20175;-77
2023/10/07 14:21:57;;;;;;;15.80;13.82;;;;;;;;;;6302638;28;20056;-79
2023/10/07 14:25:00;;;;;;;18.50;14.80;;;;;;;;;;6320141;28;20048;-79
2023/10/07 14:28:04;;;;;;;21.63;15.15;;;;;;;;;;6326396;28;20063;-80
2023/10/07 14:31:09;;;;;;;18.92;16.45;;;;;;;;;;6326540;28;20141;-77
2023/10/07 14:34:11;;;;;;;18.20;13.43;;;;;;;;;;6327539;28;20064;-77
2023/10/07 14:37:13;;;;;;;18.10;15.80;;;;;;;;;;6329468;28;20055;-77
2023/10/07 14:40:18;;;;;;;23.38;15.60;;;;;;;;;;6331251;28;20048;-77
2023/10/07 14:43:20;;;;;;;18.27;14.85;;;;;;;;;;6308904;28;20075;-77
2023/10/07 14:46:21;;;;;;;17.88;11.80;;;;;;;;;;6304158;28;20382;-77
2023/10/07 14:49:23;;;;;;;17.65;14.80;;;;;;;;;;6309207;28;20059;-77
2023/10/07 14:52:25;;;;;;;19.55;13.75;;;;;;;;;;6327248;28;20104;-75
2023/10/07 14:55:32;;;;;;;18.00;14.75;;;;;;;;;;6320793;28;20062;-75
2023/10/07 14:58:36;;;;;;;16.92;13.55;;;;;;;;;;6319442;28;20048;-77
2023/10/07 15:01:37;;;;;;;18.90;13.70;;;;;;;;;;6311111;28;20106;-77
2023/10/07 15:04:41;;;;;;;21.38;15.10;;;;;;;;;;6324741;28;20240;-76
2023/10/07 15:07:43;;;;;;;19.77;15.95;;;;;;;;;;6327981;28;21180;-75
2023/10/07 15:10:48;;;;;;;19.80;15.20;;;;;;;;;;6321972;28;20094;-77
2023/10/07 15:13:50;;;;;;;20.60;13.05;;;;;;;;;;6318073;28;20051;-76
2023/10/07 15:16:51;;;;;;;;;;;;;;;;;;6329371;28;20048;-80
2023/10/07 15:19:53;;;;;;;20.40;17.08;;;;;;;;;;6331541;28;19916;-83
2023/10/07 15:22:55;;;;;;;19.45;16.05;;;;;;;;;;6331755;28;20048;-80
2023/10/07 15:25:58;;;;;;;19.02;15.02;;;;;;;;;;6320356;28;20091;-79
2023/10/07 15:29:01;;;;;;;22.90;14.73;;;;;;;;;;6323956;28;20056;-83
2023/10/07 15:32:03;;;;;;;19.98;14.73;;;;;;;;;;6328716;28;20343;-81
2023/10/07 15:35:07;;;;;;;17.85;14.52;;;;;;;;;;6306888;28;20094;-78
2023/10/07 15:38:11;;;;;;;20.70;15.05;;;;;;;;;;6300409;28;20057;-79
2023/10/07 15:41:15;;;;;;;24.70;17.10;;;;;;;;;;6303807;28;20056;-80
2023/10/07 15:44:16;;;;;;;24.45;15.77;;;;;;;;;;6304130;28;20111;-77
2023/10/07 15:47:18;;;;;;;21.20;16.13;;;;;;;;;;6311647;28;20362;-78
2023/10/07 15:50:20;;;;;;;19.48;14.85;;;;;;;;;;6312166;28;20344;-83
2023/10/07 15:53:22;;;;;;;23.30;15.15;;;;;;;;;;6302078;28;20371;-76
2023/10/07 15:56:26;;;;;;;21.90;15.13;;;;;;;;;;6304138;28;20110;-77
2023/10/07 15:59:31;;;;;;;20.15;14.25;;;;;;;;;;6318933;28;20380;-76
2023/10/07 16:02:32;;;;;;;24.85;18.70;;;;;;;;;;6304102;28;20086;-78
2023/10/07 16:05:35;;;;;;;26.88;18.27;;;;;;;;;;6302794;28;20056;-78
2023/10/07 16:08:38;;;;;;;23.77;17.40;;;;;;;;;;6317402;28;20079;-78
2023/10/07 16:11:41;;;;;;;22.48;16.92;;;;;;;;;;6318697;28;20047;-77
2023/10/07 16:14:43;;;;;;;25.23;17.20;;;;;;;;;;6306823;28;20052;-78
2023/10/07 16:17:45;;;;;;;23.23;17.42;;;;;;;;;;6305685;28;20056;-77
2023/10/07 16:20:47;;;;;;;23.95;17.35;;;;;;;;;;6306434;28;20326;-78
2023/10/07 16:23:50;;;;;;;23.83;17.85;;;;;;;;;;6305331;28;20298;-78
2023/10/07 16:26:53;;;;;;;24.52;16.33;;;;;;;;;;6310128;28;20115;-78
2023/10/07 16:29:55;;;;;;;20.60;14.90;;;;;;;;;;6329704;28;20056;-78
2023/10/07 16:32:57;;;;;;;29.50;19.38;;;;;;;;;;6330046;28;20064;-78
2023/10/07 16:36:04;;;;;;;23.27;16.95;;;;;;;;;;6331079;28;20260;-77
2023/10/07 16:39:06;;;;;;;26.13;18.52;;;;;;;;;;6320483;28;20158;-79
2023/10/07 16:42:10;;;;;;;25.33;18.23;;;;;;;;;;6306420;28;20059;-78
2023/10/07 16:45:12;;;;;;;25.65;18.92;;;;;;;;;;6304556;28;20048;-75
2023/10/07 16:48:14;;;;;;;26.80;16.83;;;;;;;;;;6305472;28;20048;-79
2023/10/07 16:51:16;;;;;;;23.83;19.02;;;;;;;;;;6313927;28;20055;-78
2023/10/07 16:54:18;;;;;;;23.83;16.15;;;;;;;;;;6304399;28;20063;-78
2023/10/07 16:57:21;;;;;;;33.83;18.03;;;;;;;;;;6303658;28;20075;-78
2023/10/07 17:00:23;;;;;;;26.50;16.75;;;;;;;;;;6301442;28;20090;-76
2023/10/07 17:03:25;;;;;;;25.45;15.95;;;;;;;;;;6303683;28;20041;-78
2023/10/07 17:06:26;;;;;;;24.40;15.70;;;;;;;;;;6302935;28;20064;-77
2023/10/07 17:09:28;;;;;;;23.30;15.75;;;;;;;;;;6303531;28;20048;-77
2023/10/07 17:12:31;;;;;;;28.48;18.60;;;;;;;;;;6303368;28;20067;-77
2023/10/07 17:15:36;;;;;;;;;;;;;;;;;;6305088;28;20329;-78
2023/10/07 17:18:37;;;;;;;24.25;17.35;;;;;;;;;;6323850;28;20220;-78
2023/10/07 17:21:39;;;;;;;23.88;18.20;;;;;;;;;;6327393;28;20059;-78
2023/10/07 17:24:41;;;;;;;26.70;19.10;;;;;;;;;;6329184;28;20348;-78
2023/10/07 17:27:44;;;;;;;27.30;17.80;;;;;;;;;;6329268;28;20361;-77
2023/10/07 17:30:45;;;;;;;;;;;;;;;;;;6307099;28;20056;-78
2023/10/07 17:33:47;;;;;;;29.13;16.92;;;;;;;;;;6306007;28;20216;-78
2023/10/07 17:36:49;;;;;;;23.95;18.08;;;;;;;;;;6328590;28;20332;-78
2023/10/07 17:39:51;;;;;;;29.10;19.15;;;;;;;;;;6329559;28;20044;-78
2023/10/07 17:42:55;;;;;;;29.88;17.85;;;;;;;;;;6329829;28;20048;-78
2023/10/07 17:45:56;;;;;;;;;;;;;;;;;;6330315;28;20068;-79
2023/10/07 17:48:59;;;;;;;23.30;16.35;;;;;;;;;;6329666;28;20208;-78
2023/10/07 17:52:03;;;;;;;23.73;16.85;;;;;;;;;;6303312;28;20051;-78
2023/10/07 17:55:06;;;;;;;27.92;15.80;;;;;;;;;;6305048;28;20086;-78
2023/10/07 17:58:09;;;;;;;22.10;16.75;;;;;;;;;;6327760;28;20085;-78
2023/10/07 18:01:11;;;;;;;30.45;19.67;;;;;;;;;;6328392;28;20048;-78
2023/10/07 18:04:14;;;;;;;24.80;17.65;;;;;;;;;;6313955;28;20068;-78
2023/10/07 18:07:15;;;;;;;29.98;19.38;;;;;;;;;;6304804;28;20097;-79
2023/10/07 18:10:17;;;;;;;27.50;19.25;;;;;;;;;;6316381;28;20044;-78
2023/10/07 18:13:20;;;;;;;34.05;17.60;;;;;;;;;;6333167;28;20054;-78
2023/10/07 18:16:22;;;;;;;30.50;17.13;;;;;;;;;;6334464;28;20054;-77
2023/10/07 18:19:24;;;;;;;22.27;16.38;;;;;;;;;;6334276;28;20367;-79